Time;durP1;ratioP1;P1;durP2;ratioP2;P2;SDS_P1;SDS_P2;PMS_P1;PMS_P2;Temp;Humidity;BMP_temperature;BMP_pressure;BME280_temperature;BME280_humidity;BME280_pressure;Samples;Min_cycle;Max_cycle;Signal;HPM_P1;HPM_P2
2021/06/13 00:02:21;;;;;;;9.55;5.95;;;;;;;15.61;71.98;101398.75;5053473;28;20056;-74
2021/06/13 00:04:47;;;;;;;11.52;5.40;;;;;;;15.62;71.70;101392.00;5049027;28;20504;-74
2021/06/13 00:07:12;;;;;;;10.38;5.88;;;;;;;15.58;71.44;101385.38;4994928;28;20034;-74
2021/06/13 00:09:38;;;;;;;8.30;5.43;;;;;;;15.58;71.60;101390.97;5028265;28;20075;-74
2021/06/13 00:12:04;;;;;;;9.82;5.65;;;;;;;15.56;71.62;101393.22;5027261;28;20032;-74
2021/06/13 00:17:56;;;;;;;10.82;5.22;;;;;;;15.49;71.29;101396.44;5043614;28;20581;-74
2021/06/13 00:20:25;;;;;;;10.32;5.50;;;;;;;15.46;71.72;101393.38;5040919;28;20108;-74
2021/06/13 00:22:51;;;;;;;8.15;5.25;;;;;;;15.45;71.61;101398.16;5027021;28;20041;-74
2021/06/13 00:25:17;;;;;;;10.07;5.72;;;;;;;15.40;71.49;101398.25;5031195;28;20025;-74
2021/06/13 00:27:42;;;;;;;14.05;5.95;;;;;;;15.39;71.50;101399.38;5024941;28;20104;-74
2021/06/13 00:30:09;;;;;;;10.65;6.18;;;;;;;15.32;71.68;101388.59;5030179;28;20057;-74
2021/06/13 00:32:35;;;;;;;9.70;5.95;;;;;;;15.28;71.71;101401.50;5027688;28;20116;-74
2021/06/13 00:35:00;;;;;;;9.73;5.72;;;;;;;15.28;71.72;101398.72;5004122;28;20072;-74
2021/06/13 00:37:26;;;;;;;7.78;5.57;;;;;;;15.26;71.69;101403.78;5046122;28;20056;-74
2021/06/13 00:39:52;;;;;;;11.73;5.97;;;;;;;15.22;72.03;101405.53;5045119;28;20036;-74
2021/06/13 00:42:19;;;;;;;10.60;6.32;;;;;;;15.19;72.00;101398.59;5030496;28;20060;-75
2021/06/13 00:44:44;;;;;;;10.77;5.88;;;;;;;15.17;72.47;101400.00;5045593;28;20036;-74
2021/06/13 00:47:10;;;;;;;8.13;5.55;;;;;;;15.17;71.95;101394.41;5022692;28;20392;-74
2021/06/13 00:49:35;;;;;;;8.00;5.47;;;;;;;15.14;71.80;101397.81;5047724;28;20029;-74
2021/06/13 00:52:01;;;;;;;10.13;5.78;;;;;;;15.12;72.09;101397.28;5027400;28;20026;-74
2021/06/13 00:54:28;;;;;;;11.38;5.72;;;;;;;15.11;71.63;101396.47;5005466;28;20060;-74
2021/06/13 00:56:53;;;;;;;10.27;5.80;;;;;;;15.08;71.74;101397.06;5001927;28;20056;-75
2021/06/13 00:59:50;;;;;;;8.57;5.20;;;;;;;15.04;71.67;101396.00;5036525;28;20081;-74
2021/06/13 01:02:16;;;;;;;11.07;5.47;;;;;;;15.07;71.82;101402.97;5038309;28;20087;-74
2021/06/13 01:04:41;;;;;;;9.25;6.13;;;;;;;15.00;72.04;101403.34;5053434;28;20021;-74
2021/06/13 01:07:20;;;;;;;8.52;5.78;;;;;;;14.95;72.01;101409.00;5012707;28;20546;-74
2021/06/13 01:09:56;;;;;;;9.98;5.93;;;;;;;14.90;72.03;101412.69;4989457;28;20112;-74
2021/06/13 01:12:25;;;;;;;13.30;6.22;;;;;;;14.90;72.11;101411.88;5047726;28;20500;-74
2021/06/13 01:15:03;;;;;;;9.40;5.70;;;;;;;14.85;72.07;101415.59;5041701;28;20099;-74
2021/06/13 01:17:42;;;;;;;10.35;5.55;;;;;;;14.85;71.85;101415.59;5028076;28;20429;-74
2021/06/13 01:20:26;;;;;;;8.52;5.43;;;;;;;14.83;72.09;101412.25;5028270;28;20087;-74
2021/06/13 01:23:30;;;;;;;8.48;4.80;;;;;;;14.77;72.32;101424.66;5040582;28;21376;-74
2021/06/13 01:26:20;;;;;;;8.18;5.50;;;;;;;14.77;71.90;101413.47;5026878;28;20084;-74
2021/06/13 01:29:06;;;;;;;7.50;5.43;;;;;;;14.72;71.84;101422.75;5043246;28;20103;-74
2021/06/13 01:31:53;;;;;;;9.57;5.25;;;;;;;14.68;72.01;101434.81;5046667;28;20067;-74
2021/06/13 01:34:24;;;;;;;9.18;5.68;;;;;;;14.64;72.44;101417.00;5011070;28;20072;-74
2021/06/13 01:36:49;;;;;;;8.80;5.60;;;;;;;14.62;72.11;101427.63;5033434;28;20032;-75
2021/06/13 01:39:21;;;;;;;8.70;5.32;;;;;;;14.60;72.13;101436.34;5028928;28;20033;-75
2021/06/13 01:41:47;;;;;;;8.65;5.70;;;;;;;14.58;72.09;101437.75;5026765;28;20358;-74
2021/06/13 01:44:13;;;;;;;8.88;5.88;;;;;;;14.56;72.23;101435.25;5051035;28;20035;-74
2021/06/13 01:46:40;;;;;;;9.93;5.50;;;;;;;14.53;72.12;101433.06;5041292;28;20029;-74
2021/06/13 01:49:05;;;;;;;8.48;5.30;;;;;;;14.47;72.40;101437.84;5020291;28;20049;-74
2021/06/13 01:51:31;;;;;;;8.20;5.43;;;;;;;14.43;72.46;101434.00;5035082;28;20078;-74
2021/06/13 01:53:58;;;;;;;9.25;5.50;;;;;;;14.45;72.43;101437.31;5027515;28;20070;-74
2021/06/13 01:56:24;;;;;;;8.95;5.57;;;;;;;14.41;72.45;101436.25;5026369;28;20028;-74
2021/06/13 01:58:50;;;;;;;7.40;5.18;;;;;;;14.40;72.19;101439.31;5046012;28;20029;-74
2021/06/13 02:01:18;;;;;;;9.02;5.47;;;;;;;14.38;72.52;101434.06;5038481;28;20039;-74
2021/06/13 02:03:48;;;;;;;9.45;5.63;;;;;;;14.38;72.18;101436.84;5011840;28;20029;-74
2021/06/13 02:06:14;;;;;;;7.55;5.20;;;;;;;14.31;72.44;101441.94;5025173;28;20029;-74
2021/06/13 02:08:40;;;;;;;8.63;5.60;;;;;;;14.28;72.16;101442.53;5006705;28;20061;-74
2021/06/13 02:11:08;;;;;;;6.72;4.90;;;;;;;14.27;72.48;101436.13;5030448;28;20083;-74
2021/06/13 02:13:34;;;;;;;9.00;5.40;;;;;;;14.26;72.36;101434.47;5026175;28;20036;-74
2021/06/13 02:15:59;;;;;;;9.43;5.68;;;;;;;14.24;72.59;101433.94;5031978;28;20474;-74
2021/06/13 02:18:25;;;;;;;9.50;5.80;;;;;;;14.20;72.68;101432.00;5033145;28;20040;-74
2021/06/13 02:20:51;;;;;;;10.18;5.70;;;;;;;14.14;73.10;101436.00;5012773;28;20523;-74
2021/06/13 02:23:16;;;;;;;10.75;5.63;;;;;;;14.16;72.82;101428.16;5050040;28;20021;-74
2021/06/13 02:25:42;;;;;;;8.32;5.18;;;;;;;14.14;72.63;101431.25;5024332;28;20025;-74
2021/06/13 02:28:07;;;;;;;9.30;6.15;;;;;;;14.11;72.68;101431.81;5019290;28;20056;-74
2021/06/13 02:30:37;;;;;;;8.90;5.55;;;;;;;14.06;72.79;101426.28;5026289;28;20025;-74
2021/06/13 02:33:03;;;;;;;7.85;5.32;;;;;;;14.07;72.99;101426.00;5040055;28;20024;-74
2021/06/13 02:35:28;;;;;;;7.43;5.47;;;;;;;14.02;73.04;101437.22;5044099;28;20055;-74
2021/06/13 02:37:56;;;;;;;10.32;5.88;;;;;;;14.02;72.98;101436.41;5037851;28;20037;-75
2021/06/13 02:40:21;;;;;;;9.48;5.78;;;;;;;13.95;73.44;101436.72;5023231;28;20044;-74
2021/06/13 02:42:47;;;;;;;7.88;5.85;;;;;;;13.92;73.54;101445.69;5049304;28;20413;-74
2021/06/13 02:45:16;;;;;;;12.48;6.07;;;;;;;13.91;73.71;101443.22;5044902;28;20037;-74
2021/06/13 02:47:42;;;;;;;9.35;5.70;;;;;;;13.88;73.23;101441.84;5037838;28;20033;-75
2021/06/13 02:50:08;;;;;;;9.90;6.07;;;;;;;13.90;73.06;101442.38;5033229;28;20029;-74
2021/06/13 02:53:02;;;;;;;9.45;5.60;;;;;;;13.86;73.28;101435.72;5023434;28;20060;-74
2021/06/13 02:56:04;;;;;;;7.10;5.38;;;;;;;13.85;73.15;101436.84;5015295;28;20120;-74
2021/06/13 03:01:52;;;;;;;8.82;5.65;;;;;;;13.81;73.07;101444.13;5042417;28;20055;-74
2021/06/13 03:04:18;;;;;;;10.88;5.45;;;;;;;13.76;73.22;101433.00;5008615;28;20056;-74
2021/06/13 03:06:45;;;;;;;8.13;5.75;;;;;;;13.78;73.57;101434.38;5022582;28;20504;-74
2021/06/13 03:09:10;;;;;;;8.27;5.78;;;;;;;13.76;73.43;101441.38;5031796;28;20033;-74
2021/06/13 03:11:36;;;;;;;8.43;5.35;;;;;;;13.72;73.39;101440.31;5043907;28;20032;-74
2021/06/13 03:14:01;;;;;;;8.65;5.90;;;;;;;13.70;73.20;101437.81;5023229;28;20029;-74
2021/06/13 03:16:27;;;;;;;11.65;6.20;;;;;;;13.67;73.42;101434.78;5009878;28;20029;-74
2021/06/13 03:18:52;;;;;;;7.15;5.13;;;;;;;13.63;73.45;101435.34;5003532;28;20030;-74
2021/06/13 03:21:18;;;;;;;10.48;5.72;;;;;;;13.65;73.36;101440.66;5048885;28;20040;-74
2021/06/13 03:23:44;;;;;;;8.50;5.68;;;;;;;13.62;73.49;101430.91;5009533;28;20077;-74
2021/06/13 03:26:10;;;;;;;7.72;5.60;;;;;;;13.60;73.40;101435.13;5004412;28;20025;-74
2021/06/13 03:28:36;;;;;;;8.82;6.07;;;;;;;13.57;73.53;101439.31;5027167;28;20022;-74
2021/06/13 03:31:02;;;;;;;7.43;5.15;;;;;;;13.54;73.36;101437.13;5037568;28;20079;-74
2021/06/13 03:33:28;;;;;;;8.73;5.70;;;;;;;13.59;73.31;101441.81;5045678;28;20033;-74
2021/06/13 03:35:55;;;;;;;10.02;5.60;;;;;;;13.55;73.50;101444.34;5010065;28;20049;-74
2021/06/13 03:38:21;;;;;;;7.90;5.90;;;;;;;13.52;73.62;101446.91;5012194;28;20083;-74
2021/06/13 03:40:46;;;;;;;9.98;6.18;;;;;;;13.48;73.68;101443.84;5017020;28;20025;-74
2021/06/13 03:43:12;;;;;;;9.18;5.70;;;;;;;13.50;73.83;101444.38;4993961;28;20029;-74
2021/06/13 03:45:38;;;;;;;9.95;5.80;;;;;;;13.52;73.67;101444.94;5001302;28;20532;-74
2021/06/13 03:48:04;;;;;;;8.90;5.78;;;;;;;13.50;73.41;101449.97;5027019;28;20029;-74
2021/06/13 03:50:29;;;;;;;8.48;5.28;;;;;;;13.46;73.78;101443.31;5007328;28;20032;-74
2021/06/13 03:52:55;;;;;;;8.25;5.80;;;;;;;13.45;73.41;101450.00;5029199;28;20480;-74
2021/06/13 03:55:20;;;;;;;8.82;5.50;;;;;;;13.43;73.69;101446.69;5040069;28;20054;-74
2021/06/13 03:57:48;;;;;;;10.57;5.70;;;;;;;13.43;73.63;101449.50;5018533;28;20088;-74
2021/06/13 04:00:14;;;;;;;8.40;5.63;;;;;;;13.41;73.73;101449.75;5022783;28;20064;-73
2021/06/13 04:02:41;;;;;;;8.73;5.75;;;;;;;13.40;73.68;101450.06;5007473;28;20032;-74
2021/06/13 04:05:07;;;;;;;8.57;5.95;;;;;;;13.38;73.45;101449.53;5028173;28;20037;-74
2021/06/13 04:07:32;;;;;;;12.40;5.88;;;;;;;13.38;73.85;101455.09;5033703;28;20037;-74
2021/06/13 04:09:58;;;;;;;11.13;6.00;;;;;;;13.33;73.51;101450.38;5011836;28;20029;-74
2021/06/13 04:12:23;;;;;;;7.80;5.75;;;;;;;13.35;73.62;101450.94;5027500;28;20033;-74
2021/06/13 04:14:49;;;;;;;8.50;5.63;;;;;;;13.31;73.77;101455.41;5044115;28;20029;-74
2021/06/13 04:17:17;;;;;;;9.43;5.95;;;;;;;13.30;74.00;101452.91;5049427;28;20473;-74
2021/06/13 04:19:44;;;;;;;9.30;5.88;;;;;;;13.30;73.94;101458.50;5054161;28;20067;-74
2021/06/13 04:22:14;;;;;;;9.73;6.03;;;;;;;13.30;74.26;101456.53;5043446;28;20057;-74
2021/06/13 04:24:41;;;;;;;11.27;6.22;;;;;;;13.28;74.61;101464.34;5026485;28;20463;-73
2021/06/13 04:27:07;;;;;;;10.95;6.43;;;;;;;13.34;75.00;101467.94;5044793;28;20025;-73
2021/06/13 04:29:32;;;;;;;8.05;6.05;;;;;;;13.36;74.74;101451.75;5041222;28;20033;-74
2021/06/13 04:31:58;;;;;;;9.90;6.55;;;;;;;13.39;76.45;101451.16;5028295;28;20041;-73
2021/06/13 04:34:23;;;;;;;9.23;6.05;;;;;;;13.44;76.51;101451.13;5043449;28;20060;-74
2021/06/13 04:36:49;;;;;;;10.00;7.15;;;;;;;13.51;77.92;101454.44;5037433;28;20033;-74
2021/06/13 04:39:14;;;;;;;9.27;6.20;;;;;;;13.60;77.78;101460.25;5028846;28;20037;-74
2021/06/13 04:41:40;;;;;;;11.88;6.68;;;;;;;13.68;78.76;101459.63;5042567;28;20033;-74
2021/06/13 04:44:05;;;;;;;11.18;7.22;;;;;;;13.77;80.09;101459.81;5044033;28;20044;-74
2021/06/13 04:46:31;;;;;;;14.77;8.73;;;;;;;13.87;83.14;101454.13;5050297;28;20048;-74
2021/06/13 04:48:57;;;;;;;11.25;7.65;;;;;;;13.97;81.73;101444.81;5027608;28;20039;-74
2021/06/13 04:51:24;;;;;;;16.30;9.63;;;;;;;14.07;84.55;101444.75;5025166;28;20033;-74
2021/06/13 04:53:58;;;;;;;11.55;7.85;;;;;;;14.18;81.84;101454.69;5028025;28;20049;-74
2021/06/13 04:56:53;;;;;;;13.30;8.15;;;;;;;14.32;81.81;101452.00;5043725;28;20061;-74
2021/06/13 04:59:19;;;;;;;12.57;7.05;;;;;;;14.45;79.60;101458.84;5028332;28;20026;-73
2021/06/13 05:01:44;;;;;;;12.57;8.68;;;;;;;14.52;80.84;101446.22;5041711;28;20040;-73
2021/06/13 05:04:10;;;;;;;14.65;8.75;;;;;;;14.66;84.64;101454.72;5021369;28;20033;-74
2021/06/13 05:06:36;;;;;;;11.15;7.97;;;;;;;14.77;82.39;101458.22;5047432;28;20056;-74
2021/06/13 05:09:01;;;;;;;11.38;7.20;;;;;;;14.91;80.53;101452.72;5044720;28;20021;-73
2021/06/13 05:11:27;;;;;;;13.23;6.63;;;;;;;15.06;78.96;101448.88;5041619;28;20029;-74
2021/06/13 05:13:52;;;;;;;9.82;7.28;;;;;;;15.23;78.35;101453.94;5032000;28;20082;-73
2021/06/13 05:16:18;;;;;;;12.35;8.05;;;;;;;15.34;80.11;101453.47;5027577;28;20025;-74
2021/06/13 05:18:44;;;;;;;9.88;6.70;;;;;;;15.52;76.94;101451.81;5049066;28;20482;-74
2021/06/13 05:21:09;;;;;;;12.18;7.72;;;;;;;15.68;77.81;101446.78;5045012;28;20678;-74
2021/06/13 05:23:35;;;;;;;9.85;7.03;;;;;;;15.84;76.89;101452.97;5036933;28;20363;-74
2021/06/13 05:26:01;;;;;;;11.65;6.95;;;;;;;16.01;75.88;101446.78;5034442;28;20033;-74
2021/06/13 05:28:26;;;;;;;12.48;7.20;;;;;;;16.16;76.28;101454.94;5041248;28;20021;-74
2021/06/13 05:30:52;;;;;;;13.25;7.80;;;;;;;16.31;76.18;101454.63;5026359;28;20037;-74
2021/06/13 05:33:18;;;;;;;7.72;5.78;;;;;;;16.47;74.07;101454.34;5047112;28;20037;-74
2021/06/13 05:35:43;;;;;;;15.60;7.85;;;;;;;16.61;74.89;101460.78;5035639;28;21032;-74
2021/06/13 05:38:09;;;;;;;14.85;8.27;;;;;;;16.77;73.89;101457.66;5045630;28;20029;-74
2021/06/13 05:40:35;;;;;;;10.90;6.63;;;;;;;16.94;72.86;101461.50;5025739;28;20495;-74
2021/06/13 05:43:01;;;;;;;10.05;5.75;;;;;;;17.16;72.24;101455.13;5019690;28;20083;-74
2021/06/13 05:45:27;;;;;;;9.18;5.90;;;;;;;17.33;71.81;101460.06;5029192;28;20485;-74
2021/06/13 05:47:53;;;;;;;11.13;7.22;;;;;;;17.46;72.44;101461.16;5042260;28;20076;-74
2021/06/13 05:50:19;;;;;;;12.38;7.13;;;;;;;17.55;71.93;101453.66;5048111;28;20030;-74
2021/06/13 05:52:44;;;;;;;9.95;6.65;;;;;;;17.78;70.62;101453.66;5027768;28;20079;-74
2021/06/13 05:55:10;;;;;;;13.07;7.18;;;;;;;17.90;71.40;101451.09;5022227;28;20045;-74
2021/06/13 05:57:36;;;;;;;13.18;8.35;;;;;;;18.07;70.77;101456.81;5041375;28;20037;-74
2021/06/13 06:00:09;;;;;;;10.80;7.05;;;;;;;18.21;70.29;101456.72;5041568;28;20385;-74
2021/06/13 06:02:35;;;;;;;12.10;6.78;;;;;;;18.39;69.52;101462.47;5036174;28;20030;-74
2021/06/13 06:05:01;;;;;;;11.15;7.00;;;;;;;18.47;69.05;101465.31;5046353;28;20032;-75
2021/06/13 06:07:26;;;;;;;11.07;7.80;;;;;;;18.62;69.72;101466.00;5040565;28;20039;-74
2021/06/13 06:09:52;;;;;;;10.52;6.82;;;;;;;18.73;68.92;101470.19;5032112;28;20498;-74
2021/06/13 06:12:17;;;;;;;11.73;7.72;;;;;;;18.79;68.60;101468.91;5028538;28;20476;-74
2021/06/13 06:14:43;;;;;;;12.00;7.63;;;;;;;18.85;68.74;101476.03;5039213;28;20472;-74
2021/06/13 06:17:08;;;;;;;12.82;7.18;;;;;;;18.96;68.70;101471.75;5051993;28;20032;-74
2021/06/13 06:19:34;;;;;;;11.00;7.60;;;;;;;19.06;68.79;101469.81;5043718;28;20048;-74
2021/06/13 06:22:00;;;;;;;14.35;7.85;;;;;;;19.20;68.55;101471.31;5040108;28;20036;-74
2021/06/13 06:24:26;;;;;;;11.75;7.68;;;;;;;19.25;68.40;101472.31;5027164;28;20026;-75
2021/06/13 06:26:51;;;;;;;13.50;8.20;;;;;;;19.34;68.64;101473.16;5038898;28;20037;-74
2021/06/13 06:29:16;;;;;;;11.40;7.30;;;;;;;19.55;68.60;101473.31;5043055;28;20026;-73
2021/06/13 06:31:42;;;;;;;12.43;7.28;;;;;;;19.51;68.18;101464.72;5046176;28;20032;-73
2021/06/13 06:34:08;;;;;;;12.90;7.32;;;;;;;19.61;68.06;101467.19;5055102;28;20485;-73
2021/06/13 06:36:34;;;;;;;10.75;7.45;;;;;;;19.77;67.83;101475.16;5020397;28;20037;-73
2021/06/13 06:38:59;;;;;;;11.38;7.20;;;;;;;19.91;67.69;101477.81;5026651;28;20033;-73
2021/06/13 06:41:25;;;;;;;10.57;6.93;;;;;;;19.98;67.63;101472.50;5025377;28;20033;-73
2021/06/13 06:43:51;;;;;;;8.82;5.47;;;;;;;20.26;65.90;101478.56;5024933;28;20034;-74
2021/06/13 06:46:17;;;;;;;7.70;5.25;;;;;;;20.41;65.17;101471.53;5035406;28;20033;-75
2021/06/13 06:48:43;;;;;;;11.93;7.10;;;;;;;20.43;66.24;101478.50;5023166;28;20025;-75
2021/06/13 06:51:09;;;;;;;11.73;7.00;;;;;;;20.48;66.49;101485.94;5025659;28;20041;-76
2021/06/13 06:53:34;;;;;;;11.40;7.28;;;;;;;20.41;66.35;101477.16;5034097;28;20045;-75
2021/06/13 06:56:00;;;;;;;9.25;5.78;;;;;;;20.79;66.09;101482.84;5034132;28;20037;-77
2021/06/13 06:58:25;;;;;;;9.02;6.50;;;;;;;20.93;65.66;101482.59;5039481;28;20033;-75
2021/06/13 07:00:51;;;;;;;9.15;6.38;;;;;;;20.96;65.78;101477.09;5000331;28;20036;-75
2021/06/13 07:03:16;;;;;;;9.15;5.57;;;;;;;21.25;64.76;101477.41;5019804;28;20033;-74
2021/06/13 07:05:42;;;;;;;9.45;5.65;;;;;;;21.46;63.06;101480.28;5036146;28;20037;-74
2021/06/13 07:08:07;;;;;;;7.88;5.60;;;;;;;21.55;63.45;101475.38;5012713;28;20029;-74
2021/06/13 07:10:33;;;;;;;8.50;5.22;;;;;;;21.72;62.71;101480.06;5042356;28;20030;-82
2021/06/13 07:12:58;;;;;;;10.70;6.35;;;;;;;21.79;63.75;101477.50;5004819;28;20036;-69
2021/06/13 07:15:24;;;;;;;10.00;5.28;;;;;;;21.97;62.33;101470.50;5035806;28;20025;-72
2021/06/13 07:17:50;;;;;;;10.13;6.03;;;;;;;22.05;63.33;101474.41;5042686;28;20036;-69
2021/06/13 07:20:16;;;;;;;13.35;5.75;;;;;;;22.15;63.71;101485.28;5027877;28;20091;-69
2021/06/13 07:22:41;;;;;;;9.32;5.50;;;;;;;22.35;62.28;101474.28;5007297;28;20026;-68
2021/06/13 07:25:08;;;;;;;9.35;5.82;;;;;;;22.40;62.28;101476.84;5030301;28;20061;-70
2021/06/13 07:27:34;;;;;;;9.63;5.15;;;;;;;22.58;61.62;101477.50;5032971;28;20037;-69
2021/06/13 07:29:59;;;;;;;9.00;5.47;;;;;;;22.69;61.22;101481.50;5011891;28;20076;-69
2021/06/13 07:32:25;;;;;;;12.20;6.13;;;;;;;22.78;60.96;101478.56;5017624;28;20473;-70
2021/06/13 07:34:50;;;;;;;12.05;5.55;;;;;;;22.86;60.46;101477.63;5011261;28;20042;-72
2021/06/13 07:37:16;;;;;;;9.13;5.10;;;;;;;22.99;60.34;101486.97;5001840;28;20049;-73
2021/06/13 07:39:42;;;;;;;9.07;5.63;;;;;;;23.07;60.14;101486.84;5025617;28;20029;-72
2021/06/13 07:42:08;;;;;;;8.23;5.80;;;;;;;23.13;60.08;101479.75;5047643;28;20040;-72
2021/06/13 07:44:34;;;;;;;11.23;5.85;;;;;;;23.24;59.91;101485.75;5042816;28;20438;-73
2021/06/13 07:46:59;;;;;;;16.73;6.00;;;;;;;23.35;59.95;101484.06;5036776;28;20064;-72
2021/06/13 07:49:25;;;;;;;12.32;5.80;;;;;;;23.45;59.54;101490.41;5028638;28;20036;-72
2021/06/13 07:51:51;;;;;;;11.77;5.88;;;;;;;23.51;59.36;101489.81;5042289;28;20082;-72
2021/06/13 07:54:17;;;;;;;11.55;5.88;;;;;;;23.59;59.31;101486.00;5028510;28;20452;-72
2021/06/13 07:56:42;;;;;;;9.93;5.82;;;;;;;23.71;59.21;101482.34;5041504;28;20520;-72
2021/06/13 07:59:08;;;;;;;10.93;5.85;;;;;;;23.82;59.47;101488.31;4993455;28;20033;-72
2021/06/13 08:01:34;;;;;;;14.82;5.63;;;;;;;23.71;59.82;101487.16;5031860;28;20030;-72
2021/06/13 08:03:59;;;;;;;9.52;5.75;;;;;;;24.00;58.96;101486.00;5043962;28;20036;-75
2021/06/13 08:06:25;;;;;;;8.60;5.75;;;;;;;24.05;58.57;101480.06;5026225;28;20099;-75
2021/06/13 08:08:50;;;;;;;9.90;5.65;;;;;;;24.01;58.47;101482.78;5035078;28;20025;-76
2021/06/13 08:11:16;;;;;;;6.07;4.78;;;;;;;24.25;58.20;101489.53;5037758;28;20036;-75
2021/06/13 08:13:41;;;;;;;7.50;5.65;;;;;;;24.33;58.33;101482.03;5026552;28;20535;-76
2021/06/13 08:16:07;;;;;;;10.13;5.60;;;;;;;24.41;58.32;101475.34;5046073;28;20413;-76
2021/06/13 08:18:33;;;;;;;7.32;5.53;;;;;;;24.45;58.61;101474.28;5040790;28;20037;-77
2021/06/13 08:20:58;;;;;;;7.32;5.57;;;;;;;24.50;58.09;101479.69;5029513;28;20076;-74
2021/06/13 08:23:24;;;;;;;6.35;5.10;;;;;;;24.62;57.61;101475.09;5048705;28;20033;-80
2021/06/13 08:25:50;;;;;;;11.25;5.45;;;;;;;24.86;56.90;101463.53;5024256;28;20033;-76
2021/06/13 08:28:16;;;;;;;7.05;4.70;;;;;;;25.01;57.65;101470.38;5050560;28;20370;-76
2021/06/13 08:30:41;;;;;;;6.30;5.50;;;;;;;25.03;57.28;101462.31;5027031;28;20041;-75
2021/06/13 08:33:07;;;;;;;8.38;5.55;;;;;;;25.17;57.08;101462.66;5038936;28;20109;-75
2021/06/13 08:35:32;;;;;;;7.10;5.22;;;;;;;25.42;56.33;101470.94;5027338;28;20041;-76
2021/06/13 08:38:01;;;;;;;8.60;4.88;;;;;;;25.54;56.37;101465.09;5043614;28;20033;-76
2021/06/13 08:40:27;;;;;;;9.50;5.75;;;;;;;25.55;56.58;101460.25;5025901;28;20025;-71
2021/06/13 08:42:52;;;;;;;6.72;5.20;;;;;;;25.54;55.95;101453.72;5035411;28;20041;-72
2021/06/13 08:45:18;;;;;;;7.75;5.47;;;;;;;25.71;55.77;101463.00;5039545;28;20029;-72
2021/06/13 08:47:43;;;;;;;7.85;5.63;;;;;;;25.77;55.73;101470.88;5027011;28;20551;-72
2021/06/13 08:50:09;;;;;;;6.72;4.90;;;;;;;25.96;55.34;101452.97;5049101;28;20038;-72
2021/06/13 08:52:35;;;;;;;9.43;5.32;;;;;;;25.88;55.51;101456.88;5043015;28;20035;-71
2021/06/13 08:55:00;;;;;;;7.13;4.95;;;;;;;26.15;54.84;101466.34;5023633;28;20054;-72
2021/06/13 08:57:26;;;;;;;5.95;4.47;;;;;;;26.15;55.76;101449.28;5031353;28;20033;-72
2021/06/13 08:59:52;;;;;;;6.40;4.47;;;;;;;26.42;54.46;101453.03;5040539;28;20510;-72
2021/06/13 09:02:18;;;;;;;7.57;5.07;;;;;;;26.51;54.33;101456.47;5024700;28;20061;-71
2021/06/13 09:04:43;;;;;;;5.18;4.50;;;;;;;26.72;53.77;101438.91;5027333;28;20491;-72
2021/06/13 09:07:22;;;;;;;8.50;4.20;;;;;;;26.89;54.06;101434.69;5040465;28;20037;-72
2021/06/13 09:09:48;;;;;;;7.25;4.90;;;;;;;27.05;54.45;101437.38;5024762;28;20493;-71
2021/06/13 09:12:13;;;;;;;8.13;4.88;;;;;;;26.91;53.12;101425.75;5029315;28;20082;-72
2021/06/13 09:14:40;;;;;;;7.10;5.40;;;;;;;26.93;52.71;101435.56;5006379;28;20033;-72
2021/06/13 09:17:38;;;;;;;6.30;5.05;;;;;;;26.86;53.98;101420.41;4992972;28;20034;-72
2021/06/13 09:20:04;;;;;;;5.47;4.30;;;;;;;27.25;52.51;101415.28;5040172;28;20132;-69
2021/06/13 09:22:29;;;;;;;5.20;4.65;;;;;;;27.36;51.79;101413.41;5043602;28;20064;-69
2021/06/13 09:25:12;;;;;;;5.63;4.07;;;;;;;27.53;51.81;101419.72;4993214;28;20540;-70
2021/06/13 09:27:38;;;;;;;5.05;4.55;;;;;;;27.51;51.38;101414.41;5014005;28;20045;-70
2021/06/13 09:30:05;;;;;;;6.10;4.38;;;;;;;27.54;52.00;101424.22;5007173;28;20040;-76
2021/06/13 09:32:30;;;;;;;6.60;5.40;;;;;;;27.50;50.61;101414.81;4994623;28;20083;-78
2021/06/13 09:35:19;;;;;;;6.47;5.30;;;;;;;27.43;51.10;101412.66;5045198;28;20037;-77
2021/06/13 09:38:04;;;;;;;6.25;4.60;;;;;;;27.69;51.04;101410.94;5028782;28;20101;-77
2021/06/13 09:40:30;;;;;;;6.13;4.65;;;;;;;27.80;51.76;101414.75;5043113;28;20464;-77
2021/06/13 09:42:56;;;;;;;8.05;4.63;;;;;;;27.82;50.78;101412.34;5026247;28;20045;-76
2021/06/13 09:45:23;;;;;;;5.15;4.20;;;;;;;27.84;49.95;101407.06;5002054;28;20883;-75
2021/06/13 09:47:59;;;;;;;6.05;4.22;;;;;;;27.97;49.55;101399.88;5037652;28;20029;-77
2021/06/13 09:50:38;;;;;;;5.72;4.50;;;;;;;28.10;49.36;101400.38;5045180;28;20025;-77
2021/06/13 09:53:26;;;;;;;5.95;4.20;;;;;;;28.19;49.49;101395.16;5038381;28;20034;-78
2021/06/13 09:56:05;;;;;;;6.03;4.38;;;;;;;28.31;48.82;101384.69;5044236;28;20033;-77
2021/06/13 09:58:31;;;;;;;5.53;4.57;;;;;;;28.08;48.97;101382.81;5039528;28;20480;-77
2021/06/13 10:01:07;;;;;;;5.18;4.35;;;;;;;28.34;49.97;101383.88;5037883;28;20072;-77
2021/06/13 10:03:46;;;;;;;9.73;5.05;;;;;;;28.41;49.53;101378.22;5042101;28;20037;-77
2021/06/13 10:06:11;;;;;;;5.70;4.03;;;;;;;28.64;50.04;101373.13;5030701;28;20021;-78
2021/06/13 10:08:37;;;;;;;5.55;4.50;;;;;;;28.83;48.50;101376.91;5042055;28;20044;-77
2021/06/13 10:11:04;;;;;;;6.20;4.25;;;;;;;28.93;48.99;101370.44;5043088;28;20025;-77
2021/06/13 10:13:49;;;;;;;5.32;4.15;;;;;;;29.07;48.33;101373.41;5024501;28;20037;-77
2021/06/13 10:16:22;;;;;;;6.10;4.28;;;;;;;29.22;48.07;101370.63;5036552;28;20140;-77
2021/06/13 10:18:52;;;;;;;5.90;4.72;;;;;;;29.07;47.04;101370.56;5045777;28;20088;-77
2021/06/13 10:21:18;;;;;;;7.30;5.07;;;;;;;29.06;47.38;101377.50;5009478;28;20029;-77
2021/06/13 10:23:45;;;;;;;5.97;4.30;;;;;;;29.20;47.69;101368.19;5021735;28;20037;-77
2021/06/13 10:26:11;;;;;;;4.78;3.78;;;;;;;28.95;47.18;101371.69;5030172;28;20033;-77
2021/06/13 10:28:37;;;;;;;5.03;3.95;;;;;;;29.03;46.30;101372.59;5020840;28;20035;-78
2021/06/13 10:31:03;;;;;;;7.05;4.10;;;;;;;28.98;46.22;101360.69;4997487;28;20505;-77
2021/06/13 10:33:28;;;;;;;4.10;3.70;;;;;;;28.82;47.70;101375.28;5041952;28;20526;-77
2021/06/13 10:35:59;;;;;;;4.70;4.00;;;;;;;29.15;46.87;101365.69;5040034;28;20041;-78
2021/06/13 10:38:25;;;;;;;4.88;3.58;;;;;;;29.33;47.00;101371.47;5051567;28;20477;-78
2021/06/13 10:40:51;;;;;;;4.70;3.58;;;;;;;29.45;47.50;101361.72;5021808;28;20022;-77
2021/06/13 10:43:21;;;;;;;5.60;3.90;;;;;;;29.43;46.62;101367.84;5040362;28;20417;-78
2021/06/13 10:45:46;;;;;;;6.82;3.60;;;;;;;29.57;47.15;101364.22;5021294;28;20101;-78
2021/06/13 10:48:12;;;;;;;5.25;3.70;;;;;;;29.51;46.97;101362.97;5032969;28;20032;-78
2021/06/13 10:50:38;;;;;;;3.80;3.38;;;;;;;29.82;46.41;101361.44;5025976;28;20087;-78
2021/06/13 10:53:06;;;;;;;5.63;3.28;;;;;;;29.90;45.58;101360.22;5024685;28;20013;-77
2021/06/13 10:55:47;;;;;;;4.40;3.50;;;;;;;30.04;44.91;101353.69;5009409;28;20038;-78
2021/06/13 10:58:48;;;;;;;4.10;3.08;;;;;;;30.17;44.37;101351.22;5028382;28;20060;-78
2021/06/13 11:01:25;;;;;;;4.28;3.28;;;;;;;30.30;46.07;101355.38;5043532;28;20036;-77
2021/06/13 11:04:01;;;;;;;4.40;3.30;;;;;;;30.47;45.61;101356.56;5037143;28;20036;-77
2021/06/13 11:06:40;;;;;;;4.25;3.45;;;;;;;30.50;45.36;101358.63;5040626;28;20456;-77
2021/06/13 11:09:07;;;;;;;4.60;3.30;;;;;;;30.53;44.06;101356.97;5042669;28;20025;-77
2021/06/13 11:11:33;;;;;;;4.13;3.50;;;;;;;30.41;43.35;101356.19;5024648;28;20029;-77
2021/06/13 11:14:27;;;;;;;3.13;2.83;;;;;;;30.35;42.38;101354.97;5040109;28;20033;-78
2021/06/13 11:16:53;;;;;;;4.47;3.47;;;;;;;30.42;42.41;101340.63;5041332;28;20466;-78
2021/06/13 11:19:27;;;;;;;4.68;3.13;;;;;;;30.50;43.39;101338.56;5020768;28;20034;-78
2021/06/13 11:22:34;;;;;;;5.43;3.72;;;;;;;30.52;43.37;101344.69;5041677;28;20048;-77
2021/06/13 11:25:00;;;;;;;4.15;2.97;;;;;;;30.55;43.16;101340.19;4964911;28;20493;-77
2021/06/13 11:27:26;;;;;;;4.22;2.75;;;;;;;30.47;41.36;101347.97;4960200;28;20047;-77
2021/06/13 11:29:53;;;;;;;4.55;2.80;;;;;;;30.27;41.31;101339.00;4964758;28;20031;-77
2021/06/13 11:32:49;;;;;;;2.75;2.53;;;;;;;30.47;42.03;101345.13;4990782;28;20081;-77
2021/06/13 11:35:28;;;;;;;3.78;2.95;;;;;;;30.47;42.08;101325.06;4995789;28;20093;-67